Terminal Aerodrome Forecast
Issued by NWS

Home | Current Version | Previous Version | Text Only | Print | Product List | Glossary On
Versions: 1 2 3 4 5 6 7 8 9 10 11 12 13 14 15 16 17 18 19 20
000
FTUS43 KMQT 111703 AAC
TAFCMX
TAF AMD
KCMX 111703Z 1117/1212 19005KT 4SM -SHSN OVC035
      TEMPO 1117/1118 1SM -SHSN
     FM112000 32016G27KT 2SM -SHSN BLSN BKN015
     FM112300 34018G30KT 3SM -SHSN BLSN BKN020
     FM120200 35018G30KT 5SM -SHSN BLSN BKN025
     FM120900 34016G26KT 3SM -SHSN BLSN OVC020=

USA.gov is the U.S. government's official web portal to all federal, state and local government web resources and services.